Brookville, Pennsylvania
Current Conditions -  °F | °C
As of 7:53 PM on Friday 24 Oct 2014 (Local Time) from KDUJ Reporting Station
Clear Clear  
Wind Chill: 51°   Ceiling: Unl
Heat Index: 51°   Visibility: 10mi
Dew Point: 36°   Wind: 6mph
Humidity: 56%   Direction: 280°W
Pressure: 29.97"   Gusts: NA
Location:  41.16°N, 79.08°W
Report Text: KDUJ 242353Z AUTO 28005KT 10SM CLR 11/02 A2997 RMK AO2 SLP154 T01060022 10139 20100 53003
Loading
Personal Weather Stations






























Interactive Weather Map
Tropical Storm Tracking
New forecast layout! Learn more

10-Day Weather Forecast

Advertisements
Track Severe Weather on mobile